createdAt,value
2023-03-19T00:00:20.844Z,100419.09
2023-03-19T00:02:51.131Z,100412.69
2023-03-19T00:05:18.343Z,100424.94
2023-03-19T00:07:44.755Z,100422.94
2023-03-19T00:10:11.596Z,100428.44
2023-03-19T00:12:37.967Z,100442.03
2023-03-19T00:15:04.798Z,100446.53
2023-03-19T00:17:31.277Z,100450.59
2023-03-19T00:19:57.666Z,100442.09
2023-03-19T00:22:24.100Z,100438.19
2023-03-19T00:24:50.495Z,100441.34
2023-03-19T00:27:16.871Z,100439.09
2023-03-19T00:29:43.239Z,100437.31
2023-03-19T00:32:09.688Z,100435.59
2023-03-19T00:34:36.731Z,100432.09
2023-03-19T00:37:03.137Z,100435.72
2023-03-19T00:39:29.584Z,100440.09
2023-03-19T00:41:56.259Z,100438.66
2023-03-19T00:44:22.675Z,100433.28
2023-03-19T00:46:49.071Z,100429.88
2023-03-19T00:49:15.447Z,100421.97
2023-03-19T00:51:43.910Z,100423.28
2023-03-19T00:54:12.016Z,100417.25
2023-03-19T00:56:39.018Z,100423.09
2023-03-19T00:59:05.574Z,100417.38
2023-03-19T01:01:32.261Z,100424.59
2023-03-19T01:03:59.244Z,100422.13
2023-03-19T01:06:25.680Z,100422.97
2023-03-19T01:08:52.042Z,100425.50
2023-03-19T01:11:18.955Z,100424.66
2023-03-19T01:13:45.426Z,100429.16
2023-03-19T01:16:12.053Z,100441.84
2023-03-19T01:18:38.606Z,100437.78
2023-03-19T01:21:05.172Z,100430.66
2023-03-19T01:23:31.852Z,100432.72
2023-03-19T01:25:58.274Z,100430.13
2023-03-19T01:28:24.648Z,100425.72
2023-03-19T01:30:51.146Z,100428.59
2023-03-19T01:33:19.889Z,100422.91
2023-03-19T01:35:48.057Z,100420.47
2023-03-19T01:38:14.691Z,100422.31
2023-03-19T01:40:47.901Z,100420.19
2023-03-19T01:43:18.550Z,100426.47
2023-03-19T01:45:45.826Z,100421.47
2023-03-19T01:48:34.243Z,100409.91
2023-03-19T01:51:01.206Z,100413.22
2023-03-19T01:53:30.058Z,100408.16
2023-03-19T01:56:00.840Z,100413.22
2023-03-19T01:58:27.791Z,100414.47
2023-03-19T02:00:54.707Z,100423.00
2023-03-19T02:03:22.018Z,100424.59
2023-03-19T02:05:49.217Z,100426.97
2023-03-19T02:08:17.076Z,100419.78
2023-03-19T02:10:45.006Z,100414.69
2023-03-19T02:13:12.201Z,100421.34
2023-03-19T02:15:38.922Z,100418.88
2023-03-19T02:18:05.954Z,100420.91
2023-03-19T02:20:37.161Z,100417.09
2023-03-19T02:23:22.222Z,100422.81
2023-03-19T02:25:48.507Z,100419.69
2023-03-19T02:28:17.540Z,100421.13
2023-03-19T02:30:45.005Z,100411.47
2023-03-19T02:33:13.421Z,100408.78
2023-03-19T02:35:40.544Z,100417.19
2023-03-19T02:38:07.140Z,100409.00
2023-03-19T02:40:39.336Z,100411.25
2023-03-19T02:43:06.264Z,100416.50
2023-03-19T02:45:32.675Z,100411.91
2023-03-19T02:47:59.970Z,100409.31
2023-03-19T02:50:26.453Z,100414.81
2023-03-19T02:52:53.293Z,100410.66
2023-03-19T02:55:21.230Z,100412.97
2023-03-19T02:57:47.663Z,100409.38
2023-03-19T03:00:14.804Z,100409.59
2023-03-19T03:02:41.579Z,100411.13
2023-03-19T03:05:09.104Z,100412.03
2023-03-19T03:07:36.071Z,100408.22
2023-03-19T03:10:02.559Z,100420.88
2023-03-19T03:12:28.934Z,100420.63
2023-03-19T03:14:55.286Z,100415.53
2023-03-19T03:17:21.677Z,100416.50
2023-03-19T03:19:48.034Z,100417.81
2023-03-19T03:22:14.474Z,100419.41
2023-03-19T03:24:41.205Z,100419.84
2023-03-19T03:27:08.170Z,100421.72
2023-03-19T03:29:34.538Z,100421.88
2023-03-19T03:32:01.098Z,100420.00
2023-03-19T03:34:27.493Z,100423.69
2023-03-19T03:36:53.889Z,100423.03
2023-03-19T03:39:20.295Z,100430.44
2023-03-19T03:41:46.670Z,100423.19
2023-03-19T03:44:13.387Z,100425.72
2023-03-19T03:46:39.812Z,100425.56
2023-03-19T03:49:06.185Z,100420.88
2023-03-19T03:51:32.846Z,100421.44
2023-03-19T03:53:59.234Z,100420.56
2023-03-19T03:56:26.073Z,100422.81
2023-03-19T03:58:52.743Z,100427.63
2023-03-19T04:01:19.546Z,100427.38
2023-03-19T04:03:46.471Z,100436.66
2023-03-19T04:06:15.108Z,100445.06
2023-03-19T04:08:41.635Z,100443.50
2023-03-19T04:11:08.992Z,100449.56
2023-03-19T04:13:37.026Z,100447.72
2023-03-19T04:16:07.994Z,100442.78
2023-03-19T04:18:34.706Z,100437.78
2023-03-19T04:21:01.377Z,100442.25
2023-03-19T04:23:28.034Z,100438.38
2023-03-19T04:25:59.349Z,100448.38
2023-03-19T04:28:25.855Z,100451.69
2023-03-19T04:30:52.259Z,100452.09
2023-03-19T04:33:19.145Z,100454.78
2023-03-19T04:35:45.566Z,100458.44
2023-03-19T04:38:12.176Z,100449.19
2023-03-19T04:40:38.547Z,100432.25
2023-03-19T04:43:05.604Z,100435.63
2023-03-19T04:45:31.990Z,100428.19
2023-03-19T04:47:58.413Z,100426.66
2023-03-19T04:50:24.948Z,100425.69
2023-03-19T04:52:51.361Z,100435.16
2023-03-19T04:55:17.996Z,100437.75
2023-03-19T04:57:44.381Z,100438.63
2023-03-19T05:00:11.355Z,100441.28
2023-03-19T05:02:38.351Z,100447.50
2023-03-19T05:05:04.877Z,100451.69
2023-03-19T05:07:31.692Z,100457.84
2023-03-19T05:09:58.067Z,100462.09
2023-03-19T05:12:25.016Z,100458.81
2023-03-19T05:14:51.412Z,100459.03
2023-03-19T05:17:17.954Z,100460.75
2023-03-19T05:19:44.492Z,100462.09
2023-03-19T05:22:10.903Z,100460.63
2023-03-19T05:24:37.280Z,100460.91
2023-03-19T05:27:03.842Z,100465.84
2023-03-19T05:29:30.260Z,100468.28
2023-03-19T05:31:56.639Z,100464.34
2023-03-19T05:34:23.422Z,100466.00
2023-03-19T05:36:50.030Z,100468.59
2023-03-19T05:39:16.452Z,100470.00
2023-03-19T05:41:43.045Z,100471.78
2023-03-19T05:44:09.431Z,100481.16
2023-03-19T05:46:36.242Z,100477.56
2023-03-19T05:49:02.968Z,100471.22
2023-03-19T05:51:29.367Z,100472.03
2023-03-19T05:53:55.736Z,100476.81
2023-03-19T05:56:22.124Z,100483.97
2023-03-19T05:58:48.510Z,100477.47
2023-03-19T06:01:14.949Z,100476.50
2023-03-19T06:03:41.516Z,100471.31
2023-03-19T06:06:08.235Z,100481.19
2023-03-19T06:08:34.689Z,100475.19
2023-03-19T06:11:01.151Z,100477.78
2023-03-19T06:13:27.538Z,100483.47
2023-03-19T06:15:53.981Z,100482.38
2023-03-19T06:18:20.469Z,100487.38
2023-03-19T06:20:47.203Z,100491.78
2023-03-19T06:23:16.213Z,100495.78
2023-03-19T06:25:42.923Z,100491.81
2023-03-19T06:28:09.318Z,100488.25
2023-03-19T06:30:36.534Z,100492.16
2023-03-19T06:33:03.357Z,100491.13
2023-03-19T06:35:29.801Z,100496.69
2023-03-19T06:37:56.212Z,100502.03
2023-03-19T06:40:22.892Z,100504.72
2023-03-19T06:42:49.310Z,100507.81
2023-03-19T06:45:16.496Z,100512.81
2023-03-19T06:47:43.495Z,100521.00
2023-03-19T06:50:11.400Z,100523.50
2023-03-19T06:52:38.195Z,100520.22
2023-03-19T06:55:06.382Z,100519.44
2023-03-19T06:57:32.761Z,100530.47
2023-03-19T06:59:59.168Z,100529.84
2023-03-19T07:02:26.263Z,100539.03
2023-03-19T07:04:52.797Z,100541.03
2023-03-19T07:07:19.422Z,100544.31
2023-03-19T07:09:45.792Z,100541.28
2023-03-19T07:12:12.350Z,100542.78
2023-03-19T07:14:38.904Z,100553.59
2023-03-19T07:17:05.584Z,100550.31
2023-03-19T07:19:31.967Z,100552.91
2023-03-19T07:21:58.336Z,100547.50
2023-03-19T07:24:24.759Z,100548.91
2023-03-19T07:26:51.551Z,100549.28
2023-03-19T07:29:18.008Z,100550.09
2023-03-19T07:31:44.531Z,100558.94
2023-03-19T07:34:11.300Z,100557.59
2023-03-19T07:36:37.698Z,100563.22
2023-03-19T07:39:04.476Z,100561.91
2023-03-19T07:41:31.315Z,100554.09
2023-03-19T07:43:57.731Z,100559.31
2023-03-19T07:46:24.188Z,100554.78
2023-03-19T07:48:51.122Z,100555.56
2023-03-19T07:51:17.511Z,100557.56
2023-03-19T07:53:43.920Z,100565.94
2023-03-19T07:56:11.497Z,100558.25
2023-03-19T07:58:37.878Z,100563.03
2023-03-19T08:01:04.789Z,100565.03
2023-03-19T08:03:31.469Z,100568.31
2023-03-19T08:05:58.038Z,100578.44
2023-03-19T08:08:24.542Z,100568.91
2023-03-19T08:10:54.267Z,100575.41
2023-03-19T08:13:20.652Z,100568.38
2023-03-19T08:15:47.037Z,100566.97
2023-03-19T08:18:13.658Z,100566.19
2023-03-19T08:20:40.214Z,100568.56
2023-03-19T08:23:07.206Z,100582.91
2023-03-19T08:25:33.635Z,100569.25
2023-03-19T08:28:01.079Z,100577.66
2023-03-19T08:30:27.730Z,100586.06
2023-03-19T08:32:54.457Z,100591.16
2023-03-19T08:35:21.171Z,100600.69
2023-03-19T08:37:47.735Z,100597.19
2023-03-19T08:40:14.381Z,100598.22
2023-03-19T08:42:44.888Z,100597.84
2023-03-19T08:45:13.064Z,100598.03
2023-03-19T08:47:39.761Z,100597.97
2023-03-19T08:50:06.759Z,100602.09
2023-03-19T08:52:33.638Z,100602.34
2023-03-19T08:55:00.002Z,100613.16
2023-03-19T08:57:26.382Z,100606.09
2023-03-19T08:59:53.097Z,100610.53
2023-03-19T09:02:19.736Z,100605.47
2023-03-19T09:04:46.193Z,100614.78
2023-03-19T09:07:13.265Z,100607.06
2023-03-19T09:09:40.775Z,100618.69
2023-03-19T09:12:07.844Z,100619.44
2023-03-19T09:14:34.817Z,100622.72
2023-03-19T09:17:01.247Z,100618.72
2023-03-19T09:19:27.737Z,100618.72
2023-03-19T09:21:54.202Z,100623.53
2023-03-19T09:24:20.586Z,100620.81
2023-03-19T09:26:47.044Z,100630.97
2023-03-19T09:29:13.859Z,100624.81
2023-03-19T09:31:40.290Z,100626.22
2023-03-19T09:34:07.207Z,100622.84
2023-03-19T09:36:33.590Z,100624.06
2023-03-19T09:38:59.961Z,100632.69
2023-03-19T09:41:37.740Z,100628.97
2023-03-19T09:44:04.898Z,100635.53
2023-03-19T09:46:46.321Z,100621.66
2023-03-19T09:49:16.575Z,100634.50
2023-03-19T09:52:17.867Z,100632.13
2023-03-19T09:54:48.800Z,100638.97
2023-03-19T09:57:17.304Z,100636.75
2023-03-19T09:59:43.790Z,100637.97
2023-03-19T10:02:22.274Z,100644.09
2023-03-19T10:05:08.430Z,100646.94
2023-03-19T10:08:04.662Z,100647.69
2023-03-19T10:10:56.013Z,100647.16
2023-03-19T10:13:25.441Z,100647.72
2023-03-19T10:15:52.998Z,100643.03
2023-03-19T10:18:26.357Z,100640.53
2023-03-19T10:21:03.663Z,100628.25
2023-03-19T10:23:39.525Z,100628.34
2023-03-19T10:26:09.941Z,100635.16
2023-03-19T10:28:36.401Z,100636.41
2023-03-19T10:31:21.670Z,100640.53
2023-03-19T10:34:09.437Z,100640.50
2023-03-19T10:36:36.942Z,100631.28
2023-03-19T10:39:06.782Z,100637.88
2023-03-19T10:41:41.284Z,100627.06
2023-03-19T10:44:16.181Z,100629.56
2023-03-19T10:46:42.757Z,100631.84
2023-03-19T10:49:13.531Z,100637.38
2023-03-19T10:51:40.138Z,100639.84
2023-03-19T10:54:26.674Z,100638.06
2023-03-19T10:56:58.217Z,100638.91
2023-03-19T10:59:30.632Z,100639.34
2023-03-19T11:01:59.358Z,100638.72
2023-03-19T11:04:27.717Z,100643.09
2023-03-19T11:07:02.984Z,100644.84
2023-03-19T11:09:35.846Z,100645.28
2023-03-19T11:12:08.591Z,100647.72
2023-03-19T11:14:37.781Z,100645.34
2023-03-19T11:17:25.661Z,100634.63
2023-03-19T11:19:57.717Z,100641.78
2023-03-19T11:22:34.002Z,100638.53
2023-03-19T11:25:02.640Z,100641.28
2023-03-19T11:27:34.893Z,100633.06
2023-03-19T11:30:02.882Z,100635.31
2023-03-19T11:32:48.325Z,100634.78
2023-03-19T11:35:21.879Z,100632.00
2023-03-19T11:38:00.800Z,100629.88
2023-03-19T11:40:39.845Z,100633.66
2023-03-19T11:43:29.023Z,100637.41
2023-03-19T11:46:07.293Z,100629.34
2023-03-19T11:48:52.125Z,100629.03
2023-03-19T11:51:28.697Z,100628.72
2023-03-19T11:54:08.884Z,100631.22
2023-03-19T11:56:43.655Z,100628.56
2023-03-19T11:59:28.472Z,100632.03
2023-03-19T12:02:13.404Z,100630.50
2023-03-19T12:05:07.894Z,100618.72
2023-03-19T12:07:53.564Z,100624.25
2023-03-19T12:10:28.637Z,100629.03
2023-03-19T12:13:08.322Z,100629.44
2023-03-19T12:16:01.208Z,100630.84
2023-03-19T12:19:25.623Z,100622.59
2023-03-19T12:21:58.331Z,100611.25
2023-03-19T12:24:37.929Z,100598.63
2023-03-19T12:27:22.397Z,100597.41
2023-03-19T12:30:02.022Z,100616.19
2023-03-19T12:32:50.297Z,100610.19
2023-03-19T12:35:18.932Z,100613.94
2023-03-19T12:37:54.306Z,100617.31
2023-03-19T12:40:27.266Z,100621.94
2023-03-19T12:42:57.711Z,100624.41
2023-03-19T12:45:39.215Z,100626.97
2023-03-19T12:48:19.122Z,100633.97
2023-03-19T12:50:49.851Z,100640.00
2023-03-19T12:53:28.709Z,100640.09
2023-03-19T12:55:58.432Z,100656.50
2023-03-19T12:58:34.178Z,100658.31
2023-03-19T13:01:08.793Z,100668.53
2023-03-19T13:04:12.079Z,100675.03
2023-03-19T13:06:48.140Z,100678.13
2023-03-19T13:09:28.917Z,100674.06
2023-03-19T13:12:00.661Z,100681.84
2023-03-19T13:14:35.215Z,100676.88
2023-03-19T13:17:09.651Z,100679.56
2023-03-19T13:19:46.147Z,100683.13
2023-03-19T13:22:15.967Z,100674.31
2023-03-19T13:24:45.989Z,100670.31
2023-03-19T13:27:34.888Z,100672.94
2023-03-19T13:30:17.693Z,100671.38
2023-03-19T13:32:49.646Z,100661.81
2023-03-19T13:35:36.459Z,100652.06
2023-03-19T13:38:17.976Z,100646.50
2023-03-19T13:40:58.261Z,100642.97
2023-03-19T13:43:28.742Z,100641.13
2023-03-19T13:46:15.686Z,100646.56
2023-03-19T13:48:45.164Z,100640.09
2023-03-19T13:51:21.216Z,100649.63
2023-03-19T13:54:16.197Z,100640.84
2023-03-19T13:57:14.646Z,100631.22
2023-03-19T13:59:43.842Z,100622.47
2023-03-19T14:02:22.464Z,100624.94
2023-03-19T14:05:04.029Z,100625.50
2023-03-19T14:07:42.145Z,100640.16
2023-03-19T14:10:15.933Z,100634.47
2023-03-19T14:12:43.512Z,100637.78
2023-03-19T14:15:09.835Z,100639.81
2023-03-19T14:17:42.739Z,100633.25
2023-03-19T14:20:16.682Z,100646.13
2023-03-19T14:23:16.862Z,100638.72
2023-03-19T14:25:58.329Z,100646.72
2023-03-19T14:28:46.146Z,100636.69
2023-03-19T14:31:21.662Z,100645.13
2023-03-19T14:33:56.855Z,100644.63
2023-03-19T14:36:23.291Z,100645.06
2023-03-19T14:38:52.998Z,100650.16
2023-03-19T14:41:23.877Z,100648.06
2023-03-19T14:43:53.443Z,100642.25
2023-03-19T14:46:28.702Z,100641.25
2023-03-19T14:48:58.029Z,100646.34
2023-03-19T14:51:36.245Z,100650.75
2023-03-19T14:54:30.873Z,100649.19
2023-03-19T14:56:57.764Z,100651.16
2023-03-19T14:59:24.165Z,100644.13
2023-03-19T15:01:52.849Z,100651.28
2023-03-19T15:04:22.564Z,100645.22
2023-03-19T15:06:58.861Z,100651.94
2023-03-19T15:09:31.515Z,100645.56
2023-03-19T15:12:13.159Z,100643.03
2023-03-19T15:14:42.505Z,100643.28
2023-03-19T15:17:38.946Z,100643.78
2023-03-19T15:20:20.104Z,100637.88
2023-03-19T15:22:54.421Z,100639.50
2023-03-19T15:25:21.087Z,100636.03
2023-03-19T15:28:04.630Z,100643.63
2023-03-19T15:30:32.617Z,100649.47
2023-03-19T15:33:12.077Z,100654.16
2023-03-19T15:35:44.047Z,100654.81
2023-03-19T15:38:12.369Z,100652.72
2023-03-19T15:40:40.973Z,100656.13
2023-03-19T15:43:09.229Z,100655.28
2023-03-19T15:45:35.862Z,100652.41
2023-03-19T15:48:07.407Z,100655.84
2023-03-19T15:50:36.454Z,100654.78
2023-03-19T15:53:16.187Z,100652.97
2023-03-19T15:55:42.862Z,100652.88
2023-03-19T15:58:16.678Z,100659.50
2023-03-19T16:00:43.349Z,100655.47
2023-03-19T16:03:17.478Z,100657.94
2023-03-19T16:05:43.961Z,100657.38
2023-03-19T16:08:19.834Z,100659.06
2023-03-19T16:10:47.336Z,100662.41
2023-03-19T16:13:32.773Z,100662.34
2023-03-19T16:16:08.625Z,100665.28
2023-03-19T16:18:50.482Z,100662.59
2023-03-19T16:21:23.394Z,100673.94
2023-03-19T16:24:19.206Z,100680.06
2023-03-19T16:26:47.040Z,100682.22
2023-03-19T16:29:27.865Z,100689.47
2023-03-19T16:32:01.658Z,100688.88
2023-03-19T16:34:33.907Z,100691.34
2023-03-19T16:37:01.074Z,100693.84
2023-03-19T16:39:30.462Z,100695.91
2023-03-19T16:42:15.661Z,100701.25
2023-03-19T16:44:44.325Z,100707.72
2023-03-19T16:47:11.808Z,100707.28
2023-03-19T16:49:38.307Z,100707.63
2023-03-19T16:52:05.184Z,100710.31
2023-03-19T16:54:31.600Z,100708.69
2023-03-19T16:56:57.998Z,100701.97
2023-03-19T16:59:28.479Z,100700.56
2023-03-19T17:01:54.923Z,100702.47
2023-03-19T17:04:21.724Z,100713.31
2023-03-19T17:06:48.238Z,100711.63
2023-03-19T17:09:14.652Z,100709.72
2023-03-19T17:11:42.589Z,100715.84
2023-03-19T17:14:19.160Z,100719.25
2023-03-19T17:16:50.422Z,100736.22
2023-03-19T17:19:35.802Z,100736.78
2023-03-19T17:22:02.290Z,100737.31
2023-03-19T17:24:31.366Z,100750.78
2023-03-19T17:26:59.866Z,100760.09
2023-03-19T17:29:26.779Z,100751.13
2023-03-19T17:31:54.698Z,100764.03
2023-03-19T17:34:23.426Z,100761.25
2023-03-19T17:36:52.384Z,100761.78
2023-03-19T17:39:19.295Z,100758.28
2023-03-19T17:41:46.183Z,100757.94
2023-03-19T17:44:14.409Z,100768.09
2023-03-19T17:46:43.298Z,100777.78
2023-03-19T17:49:28.796Z,100772.19
2023-03-19T17:51:55.988Z,100775.81
2023-03-19T17:54:22.667Z,100780.50
2023-03-19T17:56:49.440Z,100785.47
2023-03-19T17:59:15.851Z,100792.13
2023-03-19T18:01:47.266Z,100788.69
2023-03-19T18:04:15.763Z,100789.47
2023-03-19T18:06:44.883Z,100788.84
2023-03-19T18:09:25.928Z,100798.38
2023-03-19T18:11:52.338Z,100807.75
2023-03-19T18:14:18.819Z,100804.31
2023-03-19T18:16:46.451Z,100805.56
2023-03-19T18:19:20.646Z,100810.97
2023-03-19T18:21:47.123Z,100813.06
2023-03-19T18:24:13.578Z,100817.34
2023-03-19T18:26:40.114Z,100822.34
2023-03-19T18:29:06.545Z,100817.94
2023-03-19T18:31:33.205Z,100824.94
2023-03-19T18:34:02.314Z,100831.28
2023-03-19T18:36:31.104Z,100840.78
2023-03-19T18:38:57.967Z,100836.16
2023-03-19T18:41:25.996Z,100846.56
2023-03-19T18:43:52.382Z,100846.78
2023-03-19T18:46:26.730Z,100846.56
2023-03-19T18:49:02.479Z,100848.16
2023-03-19T18:51:28.960Z,100844.38
2023-03-19T18:53:55.998Z,100848.19
2023-03-19T18:56:29.406Z,100851.75
2023-03-19T18:58:56.779Z,100862.16
2023-03-19T19:01:23.750Z,100866.25
2023-03-19T19:03:50.895Z,100863.38
2023-03-19T19:06:26.337Z,100863.84
2023-03-19T19:08:54.733Z,100872.94
2023-03-19T19:11:21.737Z,100872.50
2023-03-19T19:14:06.771Z,100875.59
2023-03-19T19:16:38.064Z,100872.41
2023-03-19T19:19:11.355Z,100879.13
2023-03-19T19:21:37.737Z,100873.16
2023-03-19T19:24:04.369Z,100878.28
2023-03-19T19:26:31.042Z,100876.88
2023-03-19T19:28:59.743Z,100883.13
2023-03-19T19:31:28.646Z,100880.88
2023-03-19T19:33:55.718Z,100883.97
2023-03-19T19:36:23.797Z,100883.50
2023-03-19T19:38:51.973Z,100881.56
2023-03-19T19:41:24.247Z,100892.81
2023-03-19T19:43:53.412Z,100894.94
2023-03-19T19:46:22.870Z,100903.94
2023-03-19T19:48:49.313Z,100908.53
2023-03-19T19:51:20.692Z,100911.75
2023-03-19T19:53:47.432Z,100914.16
2023-03-19T19:56:18.699Z,100909.44
2023-03-19T19:58:45.967Z,100914.84
2023-03-19T20:01:22.629Z,100916.13
2023-03-19T20:03:49.820Z,100930.25
2023-03-19T20:06:16.420Z,100934.44
2023-03-19T20:08:42.957Z,100939.06
2023-03-19T20:11:18.212Z,100935.69
2023-03-19T20:13:49.794Z,100934.59
2023-03-19T20:16:17.134Z,100938.22
2023-03-19T20:18:44.987Z,100943.53
2023-03-19T20:21:12.511Z,100942.09
2023-03-19T20:23:41.313Z,100951.06
2023-03-19T20:26:12.122Z,100963.22
2023-03-19T20:28:38.529Z,100955.88
2023-03-19T20:31:05.244Z,100964.72
2023-03-19T20:33:32.298Z,100966.97
2023-03-19T20:35:58.739Z,100974.66
2023-03-19T20:38:27.080Z,100980.59
2023-03-19T20:40:55.612Z,100973.00
2023-03-19T20:43:33.369Z,100981.75
2023-03-19T20:46:02.766Z,100987.88
2023-03-19T20:48:30.543Z,100991.63
2023-03-19T20:50:57.126Z,100990.78
2023-03-19T20:53:23.623Z,100994.22
2023-03-19T20:55:50.380Z,100987.63
2023-03-19T20:58:31.435Z,100999.81
2023-03-19T21:00:58.870Z,101002.31
2023-03-19T21:03:27.304Z,101001.41
2023-03-19T21:05:57.949Z,101012.22
2023-03-19T21:08:32.246Z,101013.16
2023-03-19T21:10:58.700Z,101011.56
2023-03-19T21:13:25.888Z,101010.66
2023-03-19T21:15:53.872Z,101016.06
2023-03-19T21:18:20.652Z,101014.38
2023-03-19T21:20:49.495Z,101015.59
2023-03-19T21:23:24.591Z,101013.56
2023-03-19T21:25:51.091Z,101019.34
2023-03-19T21:28:25.965Z,101016.97
2023-03-19T21:30:53.841Z,101019.47
2023-03-19T21:33:31.532Z,101016.94
2023-03-19T21:35:59.091Z,101014.69
2023-03-19T21:38:25.792Z,101020.78
2023-03-19T21:40:56.730Z,101021.72
2023-03-19T21:43:34.934Z,101014.94
2023-03-19T21:46:13.831Z,101013.78
2023-03-19T21:48:44.275Z,101017.19
2023-03-19T21:51:17.162Z,101018.97
2023-03-19T21:53:45.546Z,101018.41
2023-03-19T21:56:17.604Z,101013.69
2023-03-19T21:58:43.965Z,101016.97
2023-03-19T22:01:17.876Z,101022.16
2023-03-19T22:03:45.095Z,101029.00
2023-03-19T22:06:12.291Z,101029.78
2023-03-19T22:08:38.693Z,101035.66
2023-03-19T22:11:16.622Z,101039.03
2023-03-19T22:13:43.553Z,101038.78
2023-03-19T22:16:20.271Z,101042.59
2023-03-19T22:18:47.580Z,101038.97
2023-03-19T22:21:16.163Z,101049.34
2023-03-19T22:23:42.591Z,101053.25
2023-03-19T22:26:23.340Z,101052.84
2023-03-19T22:28:49.884Z,101054.75
2023-03-19T22:31:16.451Z,101058.97
2023-03-19T22:33:43.146Z,101054.50
2023-03-19T22:36:13.803Z,101056.16
2023-03-19T22:38:41.180Z,101058.44
2023-03-19T22:41:47.718Z,101053.78
2023-03-19T22:44:28.696Z,101048.84
2023-03-19T22:46:56.837Z,101056.88
2023-03-19T22:49:24.532Z,101047.03
2023-03-19T22:51:51.229Z,101055.28
2023-03-19T22:54:17.608Z,101048.56
2023-03-19T22:56:44.037Z,101054.16
2023-03-19T22:59:10.437Z,101058.03
2023-03-19T23:01:41.869Z,101066.69
2023-03-19T23:04:21.268Z,101063.91
2023-03-19T23:06:48.077Z,101058.41
2023-03-19T23:09:24.072Z,101070.34
2023-03-19T23:11:51.527Z,101075.63
2023-03-19T23:14:29.188Z,101081.63
2023-03-19T23:17:01.764Z,101076.50
2023-03-19T23:19:30.547Z,101081.72
2023-03-19T23:21:58.643Z,101082.00
2023-03-19T23:24:25.362Z,101084.84
2023-03-19T23:26:54.005Z,101082.00
2023-03-19T23:29:41.804Z,101086.50
2023-03-19T23:32:10.648Z,101091.44
2023-03-19T23:34:49.683Z,101097.09
2023-03-19T23:37:24.238Z,101100.81
2023-03-19T23:39:51.006Z,101099.91
2023-03-19T23:42:27.455Z,101104.09
2023-03-19T23:44:56.824Z,101112.47
2023-03-19T23:47:23.250Z,101108.47
2023-03-19T23:49:49.625Z,101113.75
2023-03-19T23:52:16.060Z,101108.97
2023-03-19T23:54:42.431Z,101106.81
2023-03-19T23:57:13.263Z,101108.03
2023-03-19T23:59:41.901Z,101104.78
